Aviation Digital Data Service (ADDS)

Output produced by METARs form (0028 UTC 17 July 2019)
found at http://www.aviationweather.gov/metar/data/
 
METAR text: MTPP 162359Z AUTO 32004KT 290V360 //// ////// 31/22 Q1016 A3000 NOSIG
Conditions at: MTPP (PORT-AU-PRINCE , HT) observed 2359 UTC 16 July 2019
Temperature: 31.0°C (88°F)
Dewpoint: 22.0°C (72°F) [RH = 59%]
Pressure (altimeter): 30.00 inches Hg (1016.0 mb)
Winds: from the NW (320 degrees) at 5 MPH (4 knots; 2.1 m/s)
Visibility: missing
Ceiling: unknown
Clouds: missing
Weather: no significant weather observed at this time

METAR text: MTPP 161859Z AUTO 10014KT //// ////// 37/18 Q1015 A2997 NOSIG
Conditions at: MTPP (PORT-AU-PRINCE , HT) observed 1859 UTC 16 July 2019
Temperature: 37.0°C (99°F)
Dewpoint: 18.0°C (64°F) [RH = 33%]
Pressure (altimeter): 29.97 inches Hg (1015.0 mb)
Winds: from the E (100 degrees) at 16 MPH (14 knots; 7.2 m/s)
Visibility: missing
Ceiling: unknown
Clouds: missing
Weather: no significant weather observed at this time

METAR text: MTPP 161759Z AUTO 10018KT //// ////// 36/17 Q1015 A2998 NOSIG
Conditions at: MTPP (PORT-AU-PRINCE , HT) observed 1759 UTC 16 July 2019
Temperature: 36.0°C (97°F)
Dewpoint: 17.0°C (63°F) [RH = 33%]
Pressure (altimeter): 29.97 inches Hg (1015.0 mb)
Winds: from the E (100 degrees) at 21 MPH (18 knots; 9.3 m/s)
Visibility: missing
Ceiling: unknown
Clouds: missing
Weather: no significant weather observed at this time

METAR text: MTPP 161659Z AUTO 11018KT 080V140 //// ////// 36/18 Q1016 A3001 NOSIG
Conditions at: MTPP (PORT-AU-PRINCE , HT) observed 1659 UTC 16 July 2019
Temperature: 36.0°C (97°F)
Dewpoint: 18.0°C (64°F) [RH = 35%]
Pressure (altimeter): 30.00 inches Hg (1016.0 mb)
Winds: from the ESE (110 degrees) at 21 MPH (18 knots; 9.3 m/s)
Visibility: missing
Ceiling: unknown
Clouds: missing
Weather: no significant weather observed at this time

METAR text: MTPP 161559Z AUTO 10018KT //// ////// 34/19 Q1017 A3003 NOSIG
Conditions at: MTPP (PORT-AU-PRINCE , HT) observed 1559 UTC 16 July 2019
Temperature: 34.0°C (93°F)
Dewpoint: 19.0°C (66°F) [RH = 41%]
Pressure (altimeter): 30.03 inches Hg (1017.0 mb)
Winds: from the E (100 degrees) at 21 MPH (18 knots; 9.3 m/s)
Visibility: missing
Ceiling: unknown
Clouds: missing
Weather: no significant weather observed at this time

METAR text: MTPP 161459Z AUTO 10016KT 070V130 //// ////// 34/19 Q1017 A3003 NOSIG
Conditions at: MTPP (PORT-AU-PRINCE , HT) observed 1459 UTC 16 July 2019
Temperature: 34.0°C (93°F)
Dewpoint: 19.0°C (66°F) [RH = 41%]
Pressure (altimeter): 30.03 inches Hg (1017.0 mb)
Winds: from the E (100 degrees) at 18 MPH (16 knots; 8.2 m/s)
Visibility: missing
Ceiling: unknown
Clouds: missing
Weather: no significant weather observed at this time

METAR text: MTPP 161359Z AUTO 10013KT 070V130 //// ////// 32/21 Q1017 A3003 NOSIG
Conditions at: MTPP (PORT-AU-PRINCE , HT) observed 1359 UTC 16 July 2019
Temperature: 32.0°C (90°F)
Dewpoint: 21.0°C (70°F) [RH = 52%]
Pressure (altimeter): 30.03 inches Hg (1017.0 mb)
Winds: from the E (100 degrees) at 15 MPH (13 knots; 6.7 m/s)
Visibility: missing
Ceiling: unknown
Clouds: missing
Weather: no significant weather observed at this time

METAR text: MTPP 161259Z AUTO 12010KT 090V150 //// ////// 30/22 Q1017 A3004 NOSIG
Conditions at: MTPP (PORT-AU-PRINCE , HT) observed 1259 UTC 16 July 2019
Temperature: 30.0°C (86°F)
Dewpoint: 22.0°C (72°F) [RH = 62%]
Pressure (altimeter): 30.03 inches Hg (1017.0 mb)
Winds: from the ESE (120 degrees) at 12 MPH (10 knots; 5.1 m/s)
Visibility: missing
Ceiling: unknown
Clouds: missing
Weather: no significant weather observed at this time

METAR text: MTPP 161159Z AUTO 11005KT //// ////// 29/23 Q1017 A3004 NOSIG
Conditions at: MTPP (PORT-AU-PRINCE , HT) observed 1159 UTC 16 July 2019
Temperature: 29.0°C (84°F)
Dewpoint: 23.0°C (73°F) [RH = 70%]
Pressure (altimeter): 30.03 inches Hg (1017.0 mb)
Winds: from the ESE (110 degrees) at 6 MPH (5 knots; 2.6 m/s)
Visibility: missing
Ceiling: unknown
Clouds: missing
Weather: no significant weather observed at this time

METAR text: MTPP 161059Z AUTO VRB03KT //// ////// 27/24 Q1017 A3003 NOSIG
Conditions at: MTPP (PORT-AU-PRINCE , HT) observed 1059 UTC 16 July 2019
Temperature: 27.0°C (81°F)
Dewpoint: 24.0°C (75°F) [RH = 84%]
Pressure (altimeter): 30.03 inches Hg (1017.0 mb)
Winds: variable direction winds at 3 MPH (3 knots; 1.5 m/s)
Visibility: missing
Ceiling: unknown
Clouds: missing
Weather: no significant weather observed at this time

METAR text: MTPP 160959Z AUTO 00000KT //// ////// 27/23 Q1016 A3000 NOSIG
Conditions at: MTPP (PORT-AU-PRINCE , HT) observed 0959 UTC 16 July 2019
Temperature: 27.0°C (81°F)
Dewpoint: 23.0°C (73°F) [RH = 79%]
Pressure (altimeter): 30.00 inches Hg (1016.0 mb)
Winds: calm
Visibility: missing
Ceiling: unknown
Clouds: missing
Weather: no significant weather observed at this time

METAR text: MTPP 160859Z AUTO VRB01KT //// ////// 27/23 Q1015 A2999 NOSIG
Conditions at: MTPP (PORT-AU-PRINCE , HT) observed 0859 UTC 16 July 2019
Temperature: 27.0°C (81°F)
Dewpoint: 23.0°C (73°F) [RH = 79%]
Pressure (altimeter): 29.97 inches Hg (1015.0 mb)
Winds: variable direction winds at 1 MPH (1 knots; 0.5 m/s)
Visibility: missing
Ceiling: unknown
Clouds: missing
Weather: no significant weather observed at this time

METAR text: MTPP 160759Z AUTO 08003KT 040V120 //// ////// 28/23 Q1015 A2997 NOSIG
Conditions at: MTPP (PORT-AU-PRINCE , HT) observed 0759 UTC 16 July 2019
Temperature: 28.0°C (82°F)
Dewpoint: 23.0°C (73°F) [RH = 74%]
Pressure (altimeter): 29.97 inches Hg (1015.0 mb)
Winds: from the E (80 degrees) at 3 MPH (3 knots; 1.5 m/s)
Visibility: missing
Ceiling: unknown
Clouds: missing
Weather: no significant weather observed at this time

METAR text: MTPP 151800Z 11009KT 9999 FEW032 36/20 Q1014 A2994
Conditions at: MTPP (PORT-AU-PRINCE , HT) observed 1800 UTC 15 July 2019
Temperature: 36.0°C (97°F)
Dewpoint: 20.0°C (68°F) [RH = 39%]
Pressure (altimeter): 29.94 inches Hg (1014.0 mb)
Winds: from the ESE (110 degrees) at 10 MPH (9 knots; 4.6 m/s)
Visibility: 6 or more miles (10+ km)
Ceiling: at least 12,000 feet AGL
Clouds: few clouds at 3200 feet AGL
Weather: no significant weather observed at this time

Forecast for: MTPP (PORT-AU-PRINCE , HT)
Text: TAF MTPP 162228Z 1700/1724 32013KT 9000 FEW020 SCT200
Forecast period: 0000 to 0600 UTC 17 July 2019
Forecast type: FROM: standard forecast or significant change
Winds: from the NW (320 degrees) at 15 MPH (13 knots; 6.7 m/s)
Visibility: 6 miles (9 km)
Ceiling: at least 12,000 feet AGL
Clouds: few clouds at 2000 feet AGL
scattered clouds at 20000 feet AGL
Weather: no significant weather forecast for this period
Text: PROB40
Forecast period: 0000 to 0400 UTC 17 July 2019
Forecast type: TEMPORARY: The following changes expected for less than half the time period
Winds: from the E (90 degrees) at 12 MPH (10 knots; 5.1 m/s)
Visibility: 2.80 miles (4.51 km)
Ceiling: 4000 feet AGL
Clouds: scattered clouds at 2200 feet AGL
broken clouds at 4000 feet AGL
Weather: SHRA  (rain showers)
Text: TEMPO 1700/1704 09010KT 4500 SHRA SCT022 BKN040
Forecast period: 0600 to 1900 UTC 17 July 2019
Forecast type: BECOMING: Conditions expected to become as follows by 1000 UTC 17 July 2019
Winds: variable direction winds at 2 MPH (2 knots; 1.0 m/s)
Visibility: 6 miles (9 km)
Ceiling: at least 12,000 feet AGL
Clouds: few clouds at 2000 feet AGL
Weather: no significant weather forecast for this period
Text: BECMG 1706/1710 VRB02KT 9000 FEW020
Forecast period: 1400 to 1800 UTC 17 July 2019
Forecast type: TEMPORARY: The following changes expected for less than half the time period
Winds: from the E (90 degrees) at 14 MPH (12 knots; 6.2 m/s)
Visibility: missing
Ceiling: unknown
Clouds: missing
Weather: no significant weather forecast for this period
Text: TEMPO 1714/1718 09012KT
Forecast period: 1900 UTC 17 July 2019 to 0000 UTC 18 July 2019
Forecast type: BECOMING: Conditions expected to become as follows by 2300 UTC 17 July 2019
Winds: from the W (270 degrees) at 14 MPH (12 knots; 6.2 m/s)
Visibility: 6 miles (9 km)
Ceiling: at least 12,000 feet AGL
Clouds: few clouds at 2600 feet AGL
scattered clouds at 3000 feet AGL
Weather: no significant weather forecast for this period